Time,TemperatureF,DewpointF,PressureIn,WindDirection,WindDirectionDegrees,WindSpeedMPH,WindSpeedGustMPH,Humidity,HourlyPrecipIn,Conditions,Clouds,dailyrainin,SolarRadiationWatts/m^2,SoftwareType,DateUTC
2013-03-02 00:00:00,35.0,31.0,-100.00,SSE,161,1.0,4.0,83,-99.99,,,0.00,-0.200000,,2013-03-02 08:00:00,
2013-03-02 00:52:00,35.0,31.0,-100.00,SSE,161,1.0,4.0,83,-99.99,,,0.00,-0.200000,,2013-03-02 08:52:00,
2013-03-02 01:00:00,35.0,30.0,-100.00,East,86,1.0,4.0,82,-99.99,,,0.00,-0.200000,,2013-03-02 09:00:00,
2013-03-02 01:52:00,35.0,30.0,-100.00,East,86,1.0,4.0,82,-99.99,,,0.00,-0.200000,,2013-03-02 09:52:00,
2013-03-02 02:00:00,35.0,29.0,-100.00,NNE,19,1.0,5.0,79,-99.99,,,0.00,-0.200000,,2013-03-02 10:00:00,
2013-03-02 02:52:00,35.0,29.0,-100.00,NNE,19,1.0,5.0,79,-99.99,,,0.00,-0.200000,,2013-03-02 10:52:00,
2013-03-02 03:00:00,36.0,29.0,-100.00,SE,131,1.0,3.0,76,-99.99,,,0.00,-0.200000,,2013-03-02 11:00:00,
2013-03-02 03:52:00,36.0,29.0,-100.00,SE,131,1.0,3.0,76,-99.99,,,0.00,-0.200000,,2013-03-02 11:52:00,
2013-03-02 04:00:00,35.0,27.0,-100.00,SW,220,1.0,4.0,75,-99.99,,,-99.99,-0.200000,,2013-03-02 12:00:00,
2013-03-02 04:53:00,35.0,27.0,-100.00,SW,220,1.0,4.0,75,-99.99,,,-99.99,-0.200000,,2013-03-02 12:53:00,
2013-03-02 05:00:00,36.0,28.0,-100.00,South,180,1.0,5.0,72,-99.99,,,-99.99,-0.200000,,2013-03-02 13:00:00,
2013-03-02 06:00:00,37.0,27.0,-100.00,South,175,2.0,6.0,67,-99.99,,,-99.99,-0.200000,,2013-03-02 14:00:00,
2013-03-02 06:52:00,37.0,27.0,-100.00,South,175,2.0,6.0,67,-99.99,,,-99.99,-0.200000,,2013-03-02 14:52:00,
2013-03-02 07:00:00,38.0,24.0,-100.00,SSW,209,2.0,5.0,58,-99.99,,,0.00,0.700000,,2013-03-02 15:00:00,
2013-03-02 07:52:00,38.0,24.0,-100.00,SSW,209,2.0,5.0,58,-99.99,,,0.00,0.700000,,2013-03-02 15:52:00,
2013-03-02 08:00:00,37.0,23.0,-100.00,East,83,1.0,3.0,56,-99.99,,,0.00,19.100000,,2013-03-02 16:00:00,
2013-03-02 08:52:00,37.0,23.0,-100.00,East,83,1.0,3.0,56,-99.99,,,0.00,19.100000,,2013-03-02 16:52:00,
2013-03-02 09:00:00,40.0,26.0,-100.00,ESE,113,1.0,4.0,55,-99.99,,,-99.99,94.699997,,2013-03-02 17:00:00,
2013-03-02 09:52:00,40.0,26.0,-100.00,ESE,113,1.0,4.0,55,-99.99,,,-99.99,94.699997,,2013-03-02 17:52:00,
2013-03-02 10:00:00,41.0,25.0,-100.00,South,185,1.0,3.0,54,-99.99,,,0.00,157.600006,,2013-03-02 18:00:00,
2013-03-02 10:52:00,41.0,25.0,-100.00,South,185,1.0,3.0,54,-99.99,,,0.00,157.600006,,2013-03-02 18:52:00,
2013-03-02 11:00:00,43.0,27.0,-100.00,South,191,2.0,6.0,52,-99.99,,,0.00,263.100006,,2013-03-02 19:00:00,
2013-03-02 11:52:00,43.0,27.0,-100.00,South,191,2.0,6.0,52,-99.99,,,0.00,263.100006,,2013-03-02 19:52:00,
2013-03-02 12:00:00,43.0,24.0,-100.00,WNW,282,3.0,6.0,47,-99.99,,,-99.99,352.299988,,2013-03-02 20:00:00,
2013-03-02 12:52:00,43.0,24.0,-100.00,WNW,282,3.0,6.0,47,-99.99,,,-99.99,352.299988,,2013-03-02 20:52:00,
2013-03-02 13:00:00,44.0,28.0,-100.00,SSE,165,3.0,6.0,53,-99.99,,,0.00,346.200012,,2013-03-02 21:00:00,
2013-03-02 13:52:00,44.0,28.0,-100.00,SSE,165,3.0,6.0,53,-99.99,,,0.00,346.200012,,2013-03-02 21:52:00,
2013-03-02 14:00:00,42.0,28.0,-100.00,SSW,195,3.0,8.0,57,-99.99,,,0.00,301.799988,,2013-03-02 22:00:00,
2013-03-02 14:52:00,42.0,28.0,-100.00,SSW,195,3.0,8.0,57,-99.99,,,0.00,301.799988,,2013-03-02 22:52:00,
2013-03-02 15:00:00,40.0,29.0,-100.00,SSE,168,5.0,9.0,66,-99.99,,,0.00,214.699997,,2013-03-02 23:00:00,
2013-03-02 15:52:00,40.0,29.0,-100.00,SSE,168,5.0,9.0,66,-99.99,,,0.00,214.699997,,2013-03-02 23:52:00,
2013-03-02 16:00:00,38.0,30.0,-100.00,WSW,237,4.0,9.0,73,-99.99,,,0.00,166.800003,,2013-03-03 00:00:00,
2013-03-02 16:52:00,38.0,30.0,-100.00,WSW,237,4.0,9.0,73,-99.99,,,0.00,166.800003,,2013-03-03 00:52:00,
2013-03-02 17:00:00,37.0,31.0,-100.00,SW,218,5.0,9.0,80,-99.99,,,0.00,77.099998,,2013-03-03 01:00:00,
2013-03-02 17:52:00,37.0,31.0,-100.00,SW,218,5.0,9.0,80,-99.99,,,0.00,77.099998,,2013-03-03 01:52:00,
2013-03-02 18:00:00,36.0,30.0,-100.00,SSE,165,4.0,8.0,78,-99.99,,,0.00,24.000000,,2013-03-03 02:00:00,
2013-03-02 18:52:00,36.0,30.0,-100.00,SSE,165,4.0,8.0,78,-99.99,,,0.00,24.000000,,2013-03-03 02:52:00,
2013-03-02 19:00:00,34.0,30.0,-100.00,SW,236,4.0,8.0,87,-99.99,,,0.00,-0.200000,,2013-03-03 03:00:00,
2013-03-02 19:52:00,34.0,30.0,-100.00,SW,236,4.0,8.0,87,-99.99,,,0.00,-0.200000,,2013-03-03 03:52:00,
2013-03-02 20:00:00,30.0,28.0,-100.00,SSW,199,6.0,11.0,89,-99.99,,,0.00,-0.200000,,2013-03-03 04:00:00,
2013-03-02 20:52:00,30.0,28.0,-100.00,SSW,199,6.0,11.0,89,-99.99,,,0.00,-0.200000,,2013-03-03 04:52:00,
2013-03-02 21:00:00,29.0,27.0,-100.00,South,179,5.0,10.0,92,-99.99,,,0.00,-0.200000,,2013-03-03 05:00:00,
2013-03-02 21:52:00,29.0,27.0,-100.00,South,179,5.0,10.0,92,-99.99,,,0.00,-0.200000,,2013-03-03 05:52:00,
2013-03-02 22:00:00,28.0,25.0,-100.00,South,169,4.0,9.0,89,-99.99,,,0.00,-0.200000,,2013-03-03 06:00:00,
2013-03-02 22:52:00,28.0,25.0,-100.00,South,169,4.0,9.0,89,-99.99,,,0.00,-0.200000,,2013-03-03 06:52:00,
2013-03-02 23:00:00,27.0,24.0,-100.00,WNW,300,4.0,9.0,89,-99.99,,,0.00,-0.200000,,2013-03-03 07:00:00,
2013-03-02 23:52:00,27.0,24.0,-100.00,WNW,300,4.0,9.0,89,-99.99,,,0.00,-0.200000,,2013-03-03 07:52:00,